sim
Sign-in with your pilot id or email,
or register
Callsign
Passwort

Schedule Details

Flight Number: RYR4774 (1)
Departure: Milan Bergamo Il Caravaggio International Airport (LIME) at 08:15
Arrival: Thessaloniki International Airport (LGTS) at 10:20
Route: Ryanair Passenger Schedule. Enter filed route here before submitting Pirep.

Weather Information
Getting current METAR information for LIME 211850Z 01004KT CAVOK 25/20 Q1018 NOSIG
Getting current METAR information for LGTS 211850Z 11004KT CAVOK 27/13 Q1017 NOSIG

Schedule Frequency

Route Map